createdAt,value
2022-09-15T00:00:55.978Z,15.67
2022-09-15T00:03:43.317Z,19.97
2022-09-15T00:06:30.383Z,20.57
2022-09-15T00:09:17.494Z,15.07
2022-09-15T00:12:04.856Z,16.67
2022-09-15T00:14:52.055Z,14.07
2022-09-15T00:17:39.186Z,16.80
2022-09-15T00:20:26.395Z,18.70
2022-09-15T00:23:15.713Z,20.00
2022-09-15T00:26:06.199Z,16.70
2022-09-15T00:28:53.656Z,17.93
2022-09-15T00:31:40.805Z,20.93
2022-09-15T00:34:27.955Z,18.63
2022-09-15T00:37:15.522Z,22.10
2022-09-15T00:40:03.033Z,19.33
2022-09-15T00:42:50.192Z,21.80
2022-09-15T00:45:37.459Z,21.87
2022-09-15T00:48:24.600Z,22.77
2022-09-15T00:51:16.872Z,23.63
2022-09-15T00:54:12.736Z,27.73
2022-09-15T00:57:04.931Z,23.33
2022-09-15T00:59:53.425Z,22.47
2022-09-15T01:02:43.730Z,19.63
2022-09-15T01:05:42.959Z,24.30
2022-09-15T01:08:36.591Z,21.30
2022-09-15T01:11:23.861Z,22.07
2022-09-15T01:14:11.268Z,21.33
2022-09-15T01:17:22.914Z,20.47
2022-09-15T01:20:34.702Z,20.83
2022-09-15T01:23:50.007Z,23.53
2022-09-15T01:26:53.118Z,19.83
2022-09-15T01:30:01.778Z,22.73
2022-09-15T01:33:10.045Z,21.77
2022-09-15T01:36:22.062Z,21.00
2022-09-15T01:39:25.095Z,20.17
2022-09-15T01:42:16.144Z,19.87
2022-09-15T01:45:15.833Z,20.47
2022-09-15T01:48:07.506Z,22.17
2022-09-15T01:50:57.819Z,21.73
2022-09-15T01:53:47.047Z,19.10
2022-09-15T01:56:37.066Z,21.77
2022-09-15T01:59:24.268Z,22.90
2022-09-15T02:02:18.954Z,18.93
2022-09-15T02:05:21.786Z,21.60
2022-09-15T02:08:25.309Z,20.57
2022-09-15T02:11:26.750Z,20.27
2022-09-15T02:14:19.767Z,18.23
2022-09-15T02:17:15.719Z,16.40
2022-09-15T02:20:25.768Z,17.67
2022-09-15T02:23:21.793Z,17.10
2022-09-15T02:26:14.234Z,18.73
2022-09-15T02:29:06.389Z,15.80
2022-09-15T02:31:56.425Z,18.70
2022-09-15T02:34:47.909Z,19.40
2022-09-15T02:37:37.102Z,20.60
2022-09-15T02:40:24.441Z,16.20
2022-09-15T02:43:14.043Z,17.13
2022-09-15T02:46:01.142Z,19.33
2022-09-15T02:48:48.603Z,16.13
2022-09-15T02:51:36.230Z,16.40
2022-09-15T02:54:24.191Z,16.03
2022-09-15T02:57:11.863Z,15.03
2022-09-15T03:00:14.888Z,14.60
2022-09-15T03:03:02.263Z,16.60
2022-09-15T03:05:49.745Z,13.07
2022-09-15T03:08:37.623Z,15.70
2022-09-15T03:11:27.562Z,14.50
2022-09-15T03:14:14.795Z,11.30
2022-09-15T03:17:05.914Z,18.57
2022-09-15T03:19:57.124Z,14.20
2022-09-15T03:22:45.171Z,13.97
2022-09-15T03:25:33.091Z,11.30
2022-09-15T03:28:24.880Z,15.23
2022-09-15T03:31:15.704Z,10.70
2022-09-15T03:37:04.192Z,12.20
2022-09-15T03:39:51.700Z,14.63
2022-09-15T03:42:39.016Z,12.23
2022-09-15T03:45:29.460Z,12.77
2022-09-15T03:48:28.200Z,12.13
2022-09-15T03:51:16.115Z,13.10
2022-09-15T03:54:03.397Z,10.97
2022-09-15T03:56:52.084Z,12.80
2022-09-15T03:59:39.087Z,12.37
2022-09-15T04:02:26.294Z,13.60
2022-09-15T04:05:13.593Z,11.77
2022-09-15T04:08:00.709Z,12.00
2022-09-15T04:10:48.378Z,9.90
2022-09-15T04:13:36.375Z,10.20
2022-09-15T04:16:25.222Z,12.43
2022-09-15T04:19:12.436Z,9.90
2022-09-15T04:21:59.427Z,14.27
2022-09-15T04:24:50.627Z,12.13
2022-09-15T04:27:38.991Z,14.70
2022-09-15T04:30:25.948Z,12.60
2022-09-15T04:33:12.909Z,13.20
2022-09-15T04:36:10.886Z,11.43
2022-09-15T04:38:58.364Z,12.07
2022-09-15T04:41:45.383Z,14.87
2022-09-15T04:44:32.892Z,10.27
2022-09-15T04:47:20.270Z,12.97
2022-09-15T04:50:07.450Z,11.20
2022-09-15T04:52:54.416Z,10.33
2022-09-15T04:55:41.410Z,7.70
2022-09-15T04:58:28.373Z,12.93
2022-09-15T05:01:19.158Z,9.70
2022-09-15T05:04:06.260Z,9.93
2022-09-15T05:06:53.401Z,15.70
2022-09-15T05:09:40.413Z,14.27
2022-09-15T05:12:28.077Z,11.00
2022-09-15T05:15:15.179Z,10.73
2022-09-15T05:18:02.357Z,12.27
2022-09-15T05:20:49.476Z,11.00
2022-09-15T05:23:37.558Z,15.40
2022-09-15T05:26:27.637Z,10.90
2022-09-15T05:29:14.710Z,10.23
2022-09-15T05:32:02.190Z,13.30
2022-09-15T05:34:49.203Z,15.63
2022-09-15T05:37:37.861Z,10.23
2022-09-15T05:40:24.947Z,8.33
2022-09-15T05:43:12.068Z,10.23
2022-09-15T05:45:59.163Z,8.93
2022-09-15T05:48:46.797Z,9.33
2022-09-15T05:51:33.817Z,9.20
2022-09-15T05:54:20.886Z,9.30
2022-09-15T05:57:07.993Z,9.33
2022-09-15T05:59:55.150Z,9.37
2022-09-15T06:02:42.342Z,11.03
2022-09-15T06:05:29.797Z,11.93
2022-09-15T06:08:17.082Z,10.10
2022-09-15T06:11:06.944Z,7.23
2022-09-15T06:13:54.040Z,9.50
2022-09-15T06:16:41.051Z,10.57
2022-09-15T06:19:29.516Z,8.50
2022-09-15T06:22:16.785Z,8.50
2022-09-15T06:25:04.355Z,6.63
2022-09-15T06:27:51.403Z,8.37
2022-09-15T06:30:41.718Z,7.07
2022-09-15T06:33:28.790Z,9.60
2022-09-15T06:36:16.161Z,9.03
2022-09-15T06:39:03.270Z,7.77
2022-09-15T06:42:02.180Z,5.93
2022-09-15T06:44:50.977Z,8.10
2022-09-15T06:47:38.049Z,8.13
2022-09-15T06:50:25.727Z,8.67
2022-09-15T06:53:12.749Z,7.53
2022-09-15T06:56:04.822Z,6.50
2022-09-15T06:58:52.312Z,8.10
2022-09-15T07:01:39.907Z,7.10
2022-09-15T07:04:26.874Z,7.53
2022-09-15T07:07:13.816Z,8.37
2022-09-15T07:10:01.363Z,6.90
2022-09-15T07:12:48.271Z,7.77
2022-09-15T07:15:35.442Z,7.20
2022-09-15T07:18:23.230Z,7.47
2022-09-15T07:21:19.917Z,6.47
2022-09-15T07:24:07.891Z,7.30
2022-09-15T07:26:54.995Z,6.20
2022-09-15T07:29:41.987Z,7.57
2022-09-15T07:32:29.153Z,8.07
2022-09-15T07:35:16.550Z,7.00
2022-09-15T07:38:03.457Z,5.50
2022-09-15T07:40:50.553Z,6.77
2022-09-15T07:43:38.450Z,7.33
2022-09-15T07:46:31.436Z,5.33
2022-09-15T07:49:18.633Z,4.53
2022-09-15T07:52:06.551Z,5.33
2022-09-15T07:54:53.646Z,6.03
2022-09-15T07:57:41.224Z,4.67
2022-09-15T08:00:28.350Z,7.10
2022-09-15T08:03:16.175Z,4.67
2022-09-15T08:06:06.556Z,6.07
2022-09-15T08:08:59.335Z,4.20
2022-09-15T08:11:47.844Z,9.43
2022-09-15T08:14:37.703Z,5.60
2022-09-15T08:17:25.458Z,7.10
2022-09-15T08:20:13.261Z,10.97
2022-09-15T08:23:00.263Z,4.33
2022-09-15T08:25:47.971Z,4.63
2022-09-15T08:28:35.482Z,5.03
2022-09-15T08:31:24.272Z,5.87
2022-09-15T08:34:13.736Z,4.40
2022-09-15T08:37:00.783Z,7.53
2022-09-15T08:39:48.215Z,7.13
2022-09-15T08:42:35.197Z,4.13
2022-09-15T08:45:30.854Z,5.97
2022-09-15T08:48:24.694Z,7.00
2022-09-15T08:51:21.274Z,5.67
2022-09-15T08:54:18.574Z,8.47
2022-09-15T08:57:11.159Z,4.37
2022-09-15T08:59:59.692Z,4.33
2022-09-15T09:02:54.828Z,7.93
2022-09-15T09:05:56.857Z,11.60
2022-09-15T09:09:09.311Z,6.87
2022-09-15T09:12:19.577Z,5.13
2022-09-15T09:15:21.660Z,5.40
2022-09-15T09:18:27.314Z,3.87
2022-09-15T09:21:38.166Z,7.63
2022-09-15T09:24:37.228Z,6.40
2022-09-15T09:27:28.926Z,6.20
2022-09-15T09:30:19.278Z,5.73
2022-09-15T09:33:24.717Z,4.50
2022-09-15T09:36:12.354Z,5.47
2022-09-15T09:39:01.662Z,4.40
2022-09-15T09:41:50.727Z,5.93
2022-09-15T09:44:39.735Z,4.73
2022-09-15T09:47:30.127Z,4.97
2022-09-15T09:50:34.814Z,4.67
2022-09-15T09:53:34.474Z,6.13
2022-09-15T09:56:26.830Z,4.47
2022-09-15T09:59:35.295Z,3.73
2022-09-15T10:02:28.943Z,6.77
2022-09-15T10:05:19.444Z,5.37
2022-09-15T10:08:06.419Z,3.47
2022-09-15T10:10:56.013Z,3.83
2022-09-15T10:14:01.884Z,6.30
2022-09-15T10:17:20.260Z,4.27
2022-09-15T10:20:28.309Z,3.67
2022-09-15T10:23:18.266Z,6.00
2022-09-15T10:26:32.247Z,3.27
2022-09-15T10:29:19.226Z,7.23
2022-09-15T10:32:25.254Z,7.87
2022-09-15T10:35:15.382Z,6.00
2022-09-15T10:38:36.693Z,6.27
2022-09-15T10:41:31.767Z,6.63
2022-09-15T10:44:41.914Z,5.07
2022-09-15T10:47:34.914Z,5.23
2022-09-15T10:50:34.359Z,3.53
2022-09-15T10:53:56.745Z,3.97
2022-09-15T10:56:49.001Z,4.97
2022-09-15T10:59:54.718Z,5.80
2022-09-15T11:02:53.972Z,4.23
2022-09-15T11:05:59.077Z,4.00
2022-09-15T11:09:09.123Z,5.77
2022-09-15T11:12:11.095Z,4.90
2022-09-15T11:15:24.156Z,4.37
2022-09-15T11:18:21.347Z,4.17
2022-09-15T11:21:21.548Z,3.43
2022-09-15T11:24:45.861Z,7.07
2022-09-15T11:27:55.537Z,5.80
2022-09-15T11:31:01.497Z,4.27
2022-09-15T11:34:00.368Z,6.17
2022-09-15T11:36:59.076Z,4.03
2022-09-15T11:40:13.215Z,3.40
2022-09-15T11:43:17.841Z,5.03
2022-09-15T11:46:13.456Z,3.57
2022-09-15T11:49:18.836Z,4.97
2022-09-15T11:52:18.971Z,5.17
2022-09-15T11:55:30.246Z,5.17
2022-09-15T11:58:27.663Z,5.00
2022-09-15T12:01:19.776Z,4.90
2022-09-15T12:04:27.335Z,4.03
2022-09-15T12:07:23.914Z,7.97
2022-09-15T12:10:19.310Z,6.43
2022-09-15T12:13:07.310Z,6.43
2022-09-15T12:15:55.321Z,2.63
2022-09-15T12:18:46.922Z,4.33
2022-09-15T12:21:39.409Z,2.80
2022-09-15T12:24:43.984Z,4.63
2022-09-15T12:27:31.208Z,4.97
2022-09-15T12:30:41.590Z,2.97
2022-09-15T12:33:43.726Z,17.80
2022-09-15T12:36:47.037Z,6.97
2022-09-15T12:39:40.814Z,7.30
2022-09-15T12:42:31.432Z,4.97
2022-09-15T12:45:25.799Z,4.27
2022-09-15T12:48:19.150Z,3.43
2022-09-15T12:51:10.645Z,4.37
2022-09-15T12:54:05.017Z,3.60
2022-09-15T12:56:54.877Z,5.57
2022-09-15T12:59:42.129Z,2.97
2022-09-15T13:02:47.481Z,5.00
2022-09-15T13:05:46.224Z,2.93
2022-09-15T13:08:33.497Z,4.47
2022-09-15T13:11:42.501Z,7.00
2022-09-15T13:14:38.123Z,6.77
2022-09-15T13:17:27.405Z,3.33
2022-09-15T13:20:29.898Z,3.37
2022-09-15T13:23:19.546Z,2.47
2022-09-15T13:26:12.119Z,2.57
2022-09-15T13:29:00.250Z,3.27
2022-09-15T13:32:25.327Z,3.10
2022-09-15T13:35:34.063Z,3.63
2022-09-15T13:38:39.546Z,4.30
2022-09-15T13:41:58.563Z,3.63
2022-09-15T13:45:20.090Z,4.93
2022-09-15T13:48:43.477Z,4.03
2022-09-15T13:51:33.050Z,3.67
2022-09-15T13:54:20.144Z,4.30
2022-09-15T13:57:08.366Z,3.73
2022-09-15T13:59:55.458Z,2.80
2022-09-15T14:02:49.897Z,2.80
2022-09-15T14:05:37.507Z,6.03
2022-09-15T14:08:30.347Z,2.87
2022-09-15T14:11:23.894Z,3.07
2022-09-15T14:14:29.197Z,4.90
2022-09-15T14:17:25.070Z,2.50
2022-09-15T14:20:26.272Z,4.20
2022-09-15T14:23:16.889Z,4.20
2022-09-15T14:26:03.952Z,5.30
2022-09-15T14:28:55.557Z,3.30
2022-09-15T14:31:42.931Z,4.43
2022-09-15T14:34:35.315Z,3.33
2022-09-15T14:37:28.607Z,5.67
2022-09-15T14:40:34.987Z,2.40
2022-09-15T14:43:36.249Z,3.20
2022-09-15T14:46:23.416Z,2.20
2022-09-15T14:49:17.011Z,5.37
2022-09-15T14:52:04.719Z,3.30
2022-09-15T14:54:59.320Z,4.17
2022-09-15T14:57:55.682Z,6.03
2022-09-15T15:01:01.680Z,3.83
2022-09-15T15:04:10.258Z,3.67
2022-09-15T15:07:05.177Z,1.70
2022-09-15T15:09:58.149Z,2.63
2022-09-15T15:12:52.332Z,3.50
2022-09-15T15:15:39.768Z,3.27
2022-09-15T15:18:39.059Z,3.70
2022-09-15T15:21:45.184Z,2.80
2022-09-15T15:24:32.155Z,2.97
2022-09-15T15:27:34.035Z,3.47
2022-09-15T15:30:30.845Z,2.70
2022-09-15T15:33:27.488Z,3.77
2022-09-15T15:36:14.693Z,2.97
2022-09-15T15:39:06.891Z,3.87
2022-09-15T15:42:06.431Z,2.23
2022-09-15T15:45:09.506Z,2.20
2022-09-15T15:47:57.265Z,2.60
2022-09-15T15:50:44.223Z,1.97
2022-09-15T15:53:31.429Z,2.00
2022-09-15T15:56:25.617Z,3.57
2022-09-15T15:59:13.403Z,4.97
2022-09-15T16:02:00.472Z,6.17
2022-09-15T16:04:47.957Z,1.13
2022-09-15T16:07:35.370Z,2.13
2022-09-15T16:10:24.621Z,2.17
2022-09-15T16:13:19.738Z,3.00
2022-09-15T16:16:19.756Z,2.30
2022-09-15T16:19:07.798Z,3.60
2022-09-15T16:21:54.800Z,2.53
2022-09-15T16:24:41.754Z,2.37
2022-09-15T16:27:29.602Z,3.07
2022-09-15T16:30:16.584Z,1.57
2022-09-15T16:33:03.600Z,2.60
2022-09-15T16:36:03.815Z,1.43
2022-09-15T16:38:50.894Z,2.03
2022-09-15T16:41:39.343Z,2.20
2022-09-15T16:44:26.583Z,4.47
2022-09-15T16:47:13.638Z,4.67
2022-09-15T16:50:00.642Z,2.87
2022-09-15T16:52:47.936Z,3.90
2022-09-15T16:55:48.335Z,2.73
2022-09-15T16:58:35.312Z,3.13
2022-09-15T17:01:22.357Z,2.43
2022-09-15T17:04:13.902Z,2.97
2022-09-15T17:07:00.899Z,3.60
2022-09-15T17:09:49.896Z,3.07
2022-09-15T17:12:38.410Z,5.70
2022-09-15T17:15:27.480Z,3.80
2022-09-15T17:18:15.659Z,2.80
2022-09-15T17:21:02.692Z,4.83
2022-09-15T17:23:50.433Z,3.83
2022-09-15T17:26:37.451Z,4.37
2022-09-15T17:29:24.873Z,4.37
2022-09-15T17:32:11.839Z,4.73
2022-09-15T17:34:58.863Z,7.83
2022-09-15T17:37:46.103Z,4.63
2022-09-15T17:40:33.983Z,3.20
2022-09-15T17:43:24.914Z,3.73
2022-09-15T17:46:12.981Z,5.03
2022-09-15T17:48:59.999Z,3.43
2022-09-15T17:51:47.066Z,3.23
2022-09-15T17:54:34.453Z,4.73
2022-09-15T17:57:21.906Z,2.83
2022-09-15T18:00:11.706Z,3.50
2022-09-15T18:03:02.187Z,4.03
2022-09-15T18:05:49.910Z,3.73
2022-09-15T18:08:37.906Z,4.03
2022-09-15T18:11:25.505Z,4.83
2022-09-15T18:14:12.723Z,5.30
2022-09-15T18:17:00.123Z,4.53
2022-09-15T18:19:47.126Z,3.93
2022-09-15T18:22:34.456Z,3.37
2022-09-15T18:25:29.837Z,4.93
2022-09-15T18:28:18.295Z,4.57
2022-09-15T18:31:05.350Z,4.27
2022-09-15T18:33:52.340Z,2.73
2022-09-15T18:36:40.563Z,4.10
2022-09-15T18:39:27.506Z,2.80
2022-09-15T18:42:14.607Z,3.13
2022-09-15T18:45:02.169Z,3.00
2022-09-15T18:47:51.004Z,5.60
2022-09-15T18:50:39.084Z,2.83
2022-09-15T18:53:26.112Z,2.40
2022-09-15T18:56:14.723Z,3.83
2022-09-15T18:59:01.757Z,5.97
2022-09-15T19:01:48.773Z,4.60
2022-09-15T19:04:40.438Z,2.53
2022-09-15T19:07:28.543Z,2.63
2022-09-15T19:10:17.439Z,6.53
2022-09-15T19:13:04.988Z,2.43
2022-09-15T19:15:53.609Z,2.80
2022-09-15T19:18:41.739Z,5.43
2022-09-15T19:21:28.747Z,2.90
2022-09-15T19:24:16.262Z,2.90
2022-09-15T19:27:05.095Z,3.60
2022-09-15T19:29:52.052Z,6.47
2022-09-15T19:32:40.573Z,5.13
2022-09-15T19:35:27.558Z,4.03
2022-09-15T19:38:14.537Z,6.03
2022-09-15T19:41:04.279Z,4.30
2022-09-15T19:43:51.634Z,5.87
2022-09-15T19:46:38.583Z,4.03
2022-09-15T19:49:26.661Z,3.80
2022-09-15T19:52:13.660Z,3.63
2022-09-15T19:55:00.729Z,3.70
2022-09-15T19:57:47.738Z,4.70
2022-09-15T20:00:34.726Z,4.13
2022-09-15T20:03:27.259Z,4.87
2022-09-15T20:06:14.330Z,3.47
2022-09-15T20:09:01.612Z,7.90
2022-09-15T20:11:48.618Z,5.50
2022-09-15T20:14:35.721Z,3.07
2022-09-15T20:17:22.744Z,7.67
2022-09-15T20:20:11.929Z,5.73
2022-09-15T20:22:58.983Z,5.77
2022-09-15T20:26:07.053Z,4.93
2022-09-15T20:28:54.246Z,6.93
2022-09-15T20:31:42.206Z,5.03
2022-09-15T20:34:29.191Z,5.43
2022-09-15T20:37:16.108Z,5.57
2022-09-15T20:40:04.703Z,5.23
2022-09-15T20:42:51.673Z,3.10
2022-09-15T20:45:38.743Z,5.03
2022-09-15T20:48:27.654Z,7.50
2022-09-15T20:51:19.025Z,7.00
2022-09-15T20:54:06.518Z,4.70
2022-09-15T20:56:53.550Z,5.47
2022-09-15T20:59:40.695Z,5.60
2022-09-15T21:02:28.138Z,5.80
2022-09-15T21:05:15.194Z,7.70
2022-09-15T21:08:02.435Z,5.60
2022-09-15T21:10:49.881Z,6.53
2022-09-15T21:13:38.199Z,4.33
2022-09-15T21:16:27.617Z,4.83
2022-09-15T21:19:14.691Z,5.37
2022-09-15T21:22:01.687Z,6.67
2022-09-15T21:24:48.653Z,3.60
2022-09-15T21:27:35.713Z,4.60
2022-09-15T21:30:22.657Z,4.73
2022-09-15T21:33:09.961Z,6.43
2022-09-15T21:36:14.927Z,4.30
2022-09-15T21:39:02.907Z,6.27
2022-09-15T21:41:50.158Z,2.90
2022-09-15T21:44:37.085Z,5.10
2022-09-15T21:47:24.079Z,3.27
2022-09-15T21:50:11.388Z,4.77
2022-09-15T21:52:58.529Z,4.07
2022-09-15T21:55:45.581Z,5.37
2022-09-15T21:58:38.937Z,3.70
2022-09-15T22:01:31.400Z,3.20
2022-09-15T22:04:18.489Z,2.60
2022-09-15T22:07:06.199Z,4.17
2022-09-15T22:09:53.802Z,2.63
2022-09-15T22:12:40.769Z,4.00
2022-09-15T22:15:28.184Z,3.83
2022-09-15T22:18:15.100Z,3.27
2022-09-15T22:21:11.313Z,3.80
2022-09-15T22:23:59.495Z,2.70
2022-09-15T22:26:46.506Z,3.80
2022-09-15T22:29:33.470Z,3.70
2022-09-15T22:32:20.558Z,3.90
2022-09-15T22:35:07.979Z,3.83
2022-09-15T22:37:54.987Z,3.87
2022-09-15T22:40:41.957Z,3.10
2022-09-15T22:43:28.960Z,4.27
2022-09-15T22:46:17.776Z,4.27
2022-09-15T22:49:04.775Z,5.20
2022-09-15T22:51:51.711Z,2.93
2022-09-15T22:54:38.923Z,3.43
2022-09-15T22:57:25.844Z,7.37
2022-09-15T23:00:13.358Z,3.83
2022-09-15T23:03:00.536Z,5.27
2022-09-15T23:05:47.525Z,5.10
2022-09-15T23:08:35.669Z,7.23
2022-09-15T23:11:23.254Z,6.07
2022-09-15T23:14:15.325Z,4.37
2022-09-15T23:17:02.269Z,5.77
2022-09-15T23:19:49.432Z,6.27
2022-09-15T23:22:37.691Z,7.43
2022-09-15T23:25:24.683Z,4.97
2022-09-15T23:28:11.568Z,8.33
2022-09-15T23:30:59.753Z,5.30
2022-09-15T23:33:47.675Z,4.33
2022-09-15T23:36:34.621Z,6.10
2022-09-15T23:39:21.618Z,9.33
2022-09-15T23:42:08.589Z,5.10
2022-09-15T23:44:55.503Z,7.23
2022-09-15T23:47:42.447Z,5.80
2022-09-15T23:50:29.426Z,3.67
2022-09-15T23:53:16.546Z,7.13
2022-09-15T23:56:03.708Z,5.70
2022-09-15T23:58:50.912Z,7.33
